sensor_id;sensor_type;location;lat;lon;timestamp;pressure;altitude;pressure_sealevel;temperature;humidity
24230;BME280;12362;50.004;8.006;2023-01-25T00:00:05;102577.59;;;2.81;100.00
24230;BME280;12362;50.004;8.006;2023-01-25T00:02:31;102571.50;;;2.76;100.00
24230;BME280;12362;50.004;8.006;2023-01-25T00:04:56;102568.13;;;2.79;100.00
24230;BME280;12362;50.004;8.006;2023-01-25T00:07:22;102568.19;;;2.82;100.00
24230;BME280;12362;50.004;8.006;2023-01-25T00:09:47;102569.91;;;2.83;100.00
24230;BME280;12362;50.004;8.006;2023-01-25T00:12:13;102562.97;;;2.76;100.00
24230;BME280;12362;50.004;8.006;2023-01-25T00:14:38;102564.78;;;2.83;100.00
24230;BME280;12362;50.004;8.006;2023-01-25T00:17:04;102563.88;;;2.78;100.00
24230;BME280;12362;50.004;8.006;2023-01-25T00:19:29;102559.56;;;2.77;100.00
24230;BME280;12362;50.004;8.006;2023-01-25T00:21:55;102558.72;;;2.78;100.00
24230;BME280;12362;50.004;8.006;2023-01-25T00:24:20;102551.94;;;2.81;100.00
24230;BME280;12362;50.004;8.006;2023-01-25T00:26:47;102553.69;;;2.82;100.00
24230;BME280;12362;50.004;8.006;2023-01-25T00:29:16;102551.97;;;2.84;100.00
24230;BME280;12362;50.004;8.006;2023-01-25T00:36:55;102550.25;;;2.82;100.00
24230;BME280;12362;50.004;8.006;2023-01-25T00:39:22;102551.03;;;2.78;100.00
24230;BME280;12362;50.004;8.006;2023-01-25T00:41:48;102550.22;;;2.80;100.00
24230;BME280;12362;50.004;8.006;2023-01-25T00:44:13;102547.66;;;2.80;100.00
24230;BME280;12362;50.004;8.006;2023-01-25T00:46:39;102541.72;;;2.83;100.00
24230;BME280;12362;50.004;8.006;2023-01-25T00:49:05;102539.06;;;2.78;100.00
24230;BME280;12362;50.004;8.006;2023-01-25T00:51:32;102533.09;;;2.79;100.00
24230;BME280;12362;50.004;8.006;2023-01-25T00:53:58;102533.13;;;2.81;100.00
24230;BME280;12362;50.004;8.006;2023-01-25T00:56:23;102526.31;;;2.83;100.00
24230;BME280;12362;50.004;8.006;2023-01-25T00:58:49;102528.13;;;2.88;100.00
24230;BME280;12362;50.004;8.006;2023-01-25T01:01:16;102534.91;;;2.86;100.00
24230;BME280;12362;50.004;8.006;2023-01-25T01:03:43;102532.28;;;2.80;100.00
24230;BME280;12362;50.004;8.006;2023-01-25T01:06:10;102532.34;;;2.86;100.00
24230;BME280;12362;50.004;8.006;2023-01-25T01:08:40;102529.84;;;2.88;100.00
24230;BME280;12362;50.004;8.006;2023-01-25T01:11:09;102523.81;;;2.86;100.00
24230;BME280;12362;50.004;8.006;2023-01-25T01:13:35;102529.75;;;2.83;100.00
24230;BME280;12362;50.004;8.006;2023-01-25T01:16:02;102530.63;;;2.84;100.00
24230;BME280;12362;50.004;8.006;2023-01-25T01:18:33;102529.75;;;2.83;100.00
24230;BME280;12362;50.004;8.006;2023-01-25T01:20:59;102528.09;;;2.87;100.00
24230;BME280;12362;50.004;8.006;2023-01-25T01:23:27;102534.09;;;2.87;100.00
24230;BME280;12362;50.004;8.006;2023-01-25T01:25:53;102527.22;;;2.85;100.00
24230;BME280;12362;50.004;8.006;2023-01-25T01:28:18;102528.03;;;2.84;100.00
24230;BME280;12362;50.004;8.006;2023-01-25T01:30:44;102530.63;;;2.85;100.00
24230;BME280;12362;50.004;8.006;2023-01-25T01:33:09;102536.56;;;2.81;100.00
24230;BME280;12362;50.004;8.006;2023-01-25T01:35:35;102528.03;;;2.82;100.00
24230;BME280;12362;50.004;8.006;2023-01-25T01:38:00;102526.25;;;2.78;100.00
24230;BME280;12362;50.004;8.006;2023-01-25T01:40:26;102524.50;;;2.76;100.00
24230;BME280;12362;50.004;8.006;2023-01-25T01:43:05;102524.50;;;2.77;100.00
24230;BME280;12362;50.004;8.006;2023-01-25T01:54:02;102524.56;;;2.80;100.00
24230;BME280;12362;50.004;8.006;2023-01-25T01:56:35;102513.41;;;2.78;100.00
24230;BME280;12362;50.004;8.006;2023-01-25T01:59:04;102511.72;;;2.79;100.00
24230;BME280;12362;50.004;8.006;2023-01-25T02:01:31;102512.59;;;2.79;100.00
24230;BME280;12362;50.004;8.006;2023-01-25T02:03:58;102511.69;;;2.76;100.00
24230;BME280;12362;50.004;8.006;2023-01-25T02:06:30;102502.25;;;2.75;100.00
24230;BME280;12362;50.004;8.006;2023-01-25T02:08:59;102503.06;;;2.72;100.00
24230;BME280;12362;50.004;8.006;2023-01-25T02:11:26;102509.91;;;2.73;100.00
24230;BME280;12362;50.004;8.006;2023-01-25T02:13:53;102504.81;;;2.75;100.00
24230;BME280;12362;50.004;8.006;2023-01-25T02:16:23;102501.44;;;2.77;100.00
24230;BME280;12362;50.004;8.006;2023-01-25T02:18:52;102499.69;;;2.75;100.00
24230;BME280;12362;50.004;8.006;2023-01-25T02:21:18;102507.34;;;2.72;100.00
24230;BME280;12362;50.004;8.006;2023-01-25T02:23:52;102506.50;;;2.73;100.00
24230;BME280;12362;50.004;8.006;2023-01-25T02:26:19;102505.63;;;2.72;100.00
24230;BME280;12362;50.004;8.006;2023-01-25T02:28:50;102506.44;;;2.70;100.00
24230;BME280;12362;50.004;8.006;2023-01-25T02:31:17;102508.06;;;2.65;100.00
24230;BME280;12362;50.004;8.006;2023-01-25T02:33:43;102501.28;;;2.68;100.00
24230;BME280;12362;50.004;8.006;2023-01-25T02:36:16;102500.53;;;2.74;100.00
24230;BME280;12362;50.004;8.006;2023-01-25T02:38:51;102506.50;;;2.73;100.00
24230;BME280;12362;50.004;8.006;2023-01-25T02:41:32;102501.38;;;2.74;100.00
24230;BME280;12362;50.004;8.006;2023-01-25T02:44:00;102498.69;;;2.67;100.00
24230;BME280;12362;50.004;8.006;2023-01-25T02:46:29;102495.22;;;2.64;100.00
24230;BME280;12362;50.004;8.006;2023-01-25T02:48:57;102500.34;;;2.64;100.00
24230;BME280;12362;50.004;8.006;2023-01-25T02:51:25;102492.72;;;2.68;100.00
24230;BME280;12362;50.004;8.006;2023-01-25T02:53:53;102491.84;;;2.66;100.00
24230;BME280;12362;50.004;8.006;2023-01-25T02:56:19;102498.69;;;2.67;100.00
24230;BME280;12362;50.004;8.006;2023-01-25T02:58:46;102501.25;;;2.67;100.00
24230;BME280;12362;50.004;8.006;2023-01-25T03:01:13;102499.44;;;2.60;100.00
24230;BME280;12362;50.004;8.006;2023-01-25T03:03:39;102493.47;;;2.60;100.00
24230;BME280;12362;50.004;8.006;2023-01-25T03:06:06;102493.47;;;2.60;100.00
24230;BME280;12362;50.004;8.006;2023-01-25T03:08:32;102490.03;;;2.61;100.00
24230;BME280;12362;50.004;8.006;2023-01-25T03:11:00;102500.25;;;2.58;100.00
24230;BME280;12362;50.004;8.006;2023-01-25T03:13:28;102492.63;;;2.62;100.00
24230;BME280;12362;50.004;8.006;2023-01-25T03:16:08;102491.66;;;2.56;100.00
24230;BME280;12362;50.004;8.006;2023-01-25T03:18:34;102489.16;;;2.59;100.00
24230;BME280;12362;50.004;8.006;2023-01-25T03:23:30;102494.22;;;2.56;100.00
24230;BME280;12362;50.004;8.006;2023-01-25T03:26:04;102490.00;;;2.58;100.00
24230;BME280;12362;50.004;8.006;2023-01-25T03:28:30;102489.09;;;2.56;100.00
24230;BME280;12362;50.004;8.006;2023-01-25T03:30:55;102483.09;;;2.54;100.00
24230;BME280;12362;50.004;8.006;2023-01-25T03:33:21;102483.84;;;2.50;100.00
24230;BME280;12362;50.004;8.006;2023-01-25T03:35:51;102479.56;;;2.47;100.00
24230;BME280;12362;50.004;8.006;2023-01-25T03:38:17;102475.25;;;2.46;100.00
24230;BME280;12362;50.004;8.006;2023-01-25T03:40:45;102473.59;;;2.50;100.00
24230;BME280;12362;50.004;8.006;2023-01-25T03:43:12;102471.09;;;2.53;100.00
24230;BME280;12362;50.004;8.006;2023-01-25T03:45:37;102465.88;;;2.47;100.00
24230;BME280;12362;50.004;8.006;2023-01-25T03:48:03;102466.72;;;2.47;100.00
24230;BME280;12362;50.004;8.006;2023-01-25T03:50:29;102464.09;;;2.44;100.00
24230;BME280;12362;50.004;8.006;2023-01-25T03:52:54;102461.53;;;2.44;100.00
24230;BME280;12362;50.004;8.006;2023-01-25T03:55:28;102464.94;;;2.43;100.00
24230;BME280;12362;50.004;8.006;2023-01-25T03:57:54;102468.38;;;2.44;100.00
24230;BME280;12362;50.004;8.006;2023-01-25T04:00:20;102469.28;;;2.46;100.00
24230;BME280;12362;50.004;8.006;2023-01-25T04:02:54;102464.28;;;2.53;100.00
24230;BME280;12362;50.004;8.006;2023-01-25T04:05:19;102460.09;;;2.58;100.00
24230;BME280;12362;50.004;8.006;2023-01-25T04:07:45;102464.38;;;2.59;100.00
24230;BME280;12362;50.004;8.006;2023-01-25T04:10:13;102466.94;;;2.59;100.00
24230;BME280;12362;50.004;8.006;2023-01-25T04:12:42;102462.56;;;2.54;100.00
24230;BME280;12362;50.004;8.006;2023-01-25T04:15:08;102462.44;;;2.46;100.00
24230;BME280;12362;50.004;8.006;2023-01-25T04:17:34;102459.09;;;2.50;100.00
24230;BME280;12362;50.004;8.006;2023-01-25T04:20:09;102459.19;;;2.55;100.00
24230;BME280;12362;50.004;8.006;2023-01-25T04:22:38;102466.78;;;2.50;100.00
24230;BME280;12362;50.004;8.006;2023-01-25T04:25:05;102464.22;;;2.49;100.00
24230;BME280;12362;50.004;8.006;2023-01-25T04:27:31;102462.50;;;2.51;100.00
24230;BME280;12362;50.004;8.006;2023-01-25T04:30:03;102453.16;;;2.53;100.00
24230;BME280;12362;50.004;8.006;2023-01-25T04:32:30;102455.66;;;2.48;100.00
24230;BME280;12362;50.004;8.006;2023-01-25T04:34:57;102453.03;;;2.45;100.00
24230;BME280;12362;50.004;8.006;2023-01-25T04:37:26;102457.31;;;2.46;100.00
24230;BME280;12362;50.004;8.006;2023-01-25T04:39:56;102445.19;;;2.36;100.00
24230;BME280;12362;50.004;8.006;2023-01-25T04:42:22;102448.44;;;2.28;100.00
24230;BME280;12362;50.004;8.006;2023-01-25T04:44:52;102443.47;;;2.35;100.00
24230;BME280;12362;50.004;8.006;2023-01-25T04:47:18;102447.75;;;2.38;100.00
24230;BME280;12362;50.004;8.006;2023-01-25T04:49:43;102443.50;;;2.37;100.00
24230;BME280;12362;50.004;8.006;2023-01-25T04:52:10;102447.75;;;2.38;100.00
24230;BME280;12362;50.004;8.006;2023-01-25T04:54:36;102441.88;;;2.43;100.00
24230;BME280;12362;50.004;8.006;2023-01-25T04:57:02;102434.16;;;2.40;100.00
24230;BME280;12362;50.004;8.006;2023-01-25T04:59:34;102436.72;;;2.40;100.00
24230;BME280;12362;50.004;8.006;2023-01-25T05:01:59;102424.00;;;2.46;100.00
24230;BME280;12362;50.004;8.006;2023-01-25T05:04:26;102425.66;;;2.44;100.00
24230;BME280;12362;50.004;8.006;2023-01-25T05:06:52;102420.53;;;2.43;100.00
24230;BME280;12362;50.004;8.006;2023-01-25T05:09:18;102423.28;;;2.55;100.00
24230;BME280;12362;50.004;8.006;2023-01-25T05:11:45;102419.06;;;2.57;100.00
24230;BME280;12362;50.004;8.006;2023-01-25T05:14:18;102415.59;;;2.55;100.00
24230;BME280;12362;50.004;8.006;2023-01-25T05:16:44;102412.94;;;2.49;100.00
24230;BME280;12362;50.004;8.006;2023-01-25T05:19:12;102413.66;;;2.40;100.00
24230;BME280;12362;50.004;8.006;2023-01-25T05:21:48;102420.44;;;2.38;100.00
24230;BME280;12362;50.004;8.006;2023-01-25T05:24:34;102417.88;;;2.37;100.00
24230;BME280;12362;50.004;8.006;2023-01-25T05:27:03;102413.66;;;2.42;100.00
24230;BME280;12362;50.004;8.006;2023-01-25T05:29:58;102415.31;;;2.38;100.00
24230;BME280;12362;50.004;8.006;2023-01-25T05:33:02;102407.63;;;2.38;100.00
24230;BME280;12362;50.004;8.006;2023-01-25T05:35:29;102411.94;;;2.39;100.00
24230;BME280;12362;50.004;8.006;2023-01-25T05:37:59;102405.06;;;2.38;100.00
24230;BME280;12362;50.004;8.006;2023-01-25T05:40:26;102412.78;;;2.40;100.00
24230;BME280;12362;50.004;8.006;2023-01-25T05:42:56;102411.66;;;2.24;100.00
24230;BME280;12362;50.004;8.006;2023-01-25T05:45:23;102403.28;;;2.34;100.00
24230;BME280;12362;50.004;8.006;2023-01-25T05:47:52;102400.78;;;2.36;100.00
24230;BME280;12362;50.004;8.006;2023-01-25T05:50:19;102397.38;;;2.38;100.00
24230;BME280;12362;50.004;8.006;2023-01-25T05:53:03;102405.78;;;2.30;100.00
24230;BME280;12362;50.004;8.006;2023-01-25T05:55:34;102402.25;;;2.22;100.00
24230;BME280;12362;50.004;8.006;2023-01-25T05:58:11;102407.38;;;2.22;100.00
24230;BME280;12362;50.004;8.006;2023-01-25T06:00:37;102400.66;;;2.28;100.00
24230;BME280;12362;50.004;8.006;2023-01-25T06:03:03;102396.34;;;2.27;100.00
24230;BME280;12362;50.004;8.006;2023-01-25T06:05:31;102396.31;;;2.26;100.00
24230;BME280;12362;50.004;8.006;2023-01-25T06:07:57;102386.03;;;2.23;100.00
24230;BME280;12362;50.004;8.006;2023-01-25T06:10:31;102389.50;;;2.26;100.00
24230;BME280;12362;50.004;8.006;2023-01-25T06:12:57;102392.91;;;2.25;100.00
24230;BME280;12362;50.004;8.006;2023-01-25T06:15:24;102391.84;;;2.14;100.00
24230;BME280;12362;50.004;8.006;2023-01-25T06:17:53;102393.66;;;2.21;100.00
24230;BME280;12362;50.004;8.006;2023-01-25T06:20:42;102391.84;;;2.13;100.00
24230;BME280;12362;50.004;8.006;2023-01-25T06:23:08;102385.03;;;2.15;100.00
24230;BME280;12362;50.004;8.006;2023-01-25T06:25:33;102385.97;;;2.18;100.00
24230;BME280;12362;50.004;8.006;2023-01-25T06:28:30;102392.88;;;2.24;100.00
24230;BME280;12362;50.004;8.006;2023-01-25T06:31:03;102394.56;;;2.23;100.00
24230;BME280;12362;50.004;8.006;2023-01-25T06:33:28;102389.44;;;2.22;100.00
24230;BME280;12362;50.004;8.006;2023-01-25T06:35:58;102394.44;;;2.16;100.00
24230;BME280;12362;50.004;8.006;2023-01-25T06:38:24;102389.34;;;2.17;100.00
24230;BME280;12362;50.004;8.006;2023-01-25T06:40:50;102389.34;;;2.17;100.00
24230;BME280;12362;50.004;8.006;2023-01-25T06:43:15;102393.59;;;2.15;100.00
24230;BME280;12362;50.004;8.006;2023-01-25T06:45:41;102392.69;;;2.13;100.00
24230;BME280;12362;50.004;8.006;2023-01-25T06:48:06;102389.28;;;2.13;100.00
24230;BME280;12362;50.004;8.006;2023-01-25T06:50:32;102384.16;;;2.13;100.00
24230;BME280;12362;50.004;8.006;2023-01-25T06:52:57;102387.59;;;2.15;100.00
24230;BME280;12362;50.004;8.006;2023-01-25T06:55:23;102386.78;;;2.17;100.00
24230;BME280;12362;50.004;8.006;2023-01-25T06:57:49;102382.50;;;2.16;100.00
24230;BME280;12362;50.004;8.006;2023-01-25T07:00:15;102386.88;;;2.22;100.00
24230;BME280;12362;50.004;8.006;2023-01-25T07:02:41;102396.28;;;2.23;100.00
24230;BME280;12362;50.004;8.006;2023-01-25T07:05:08;102392.91;;;2.25;100.00
24230;BME280;12362;50.004;8.006;2023-01-25T07:07:34;102398.84;;;2.24;100.00
24230;BME280;12362;50.004;8.006;2023-01-25T07:09:59;102398.78;;;2.20;100.00
24230;BME280;12362;50.004;8.006;2023-01-25T07:12:29;102400.38;;;2.15;100.00
24230;BME280;12362;50.004;8.006;2023-01-25T07:14:55;102391.78;;;2.10;100.00
24230;BME280;12362;50.004;8.006;2023-01-25T07:17:21;102400.38;;;2.12;100.00
24230;BME280;12362;50.004;8.006;2023-01-25T07:19:46;102399.59;;;2.17;100.00
24230;BME280;12362;50.004;8.006;2023-01-25T07:22:12;102390.97;;;2.12;100.00
24230;BME280;12362;50.004;8.006;2023-01-25T07:24:37;102392.63;;;2.09;100.00
24230;BME280;12362;50.004;8.006;2023-01-25T07:27:03;102390.13;;;2.13;100.00
24230;BME280;12362;50.004;8.006;2023-01-25T07:29:28;102394.47;;;2.17;100.00
24230;BME280;12362;50.004;8.006;2023-01-25T07:31:54;102396.97;;;2.14;100.00
24230;BME280;12362;50.004;8.006;2023-01-25T07:34:20;102395.31;;;2.18;100.00
24230;BME280;12362;50.004;8.006;2023-01-25T07:36:46;102392.00;;;2.22;100.00
24230;BME280;12362;50.004;8.006;2023-01-25T07:39:11;102390.25;;;2.21;100.00
24230;BME280;12362;50.004;8.006;2023-01-25T07:41:37;102391.91;;;2.17;100.00
24230;BME280;12362;50.004;8.006;2023-01-25T07:44:03;102391.03;;;2.15;100.00
24230;BME280;12362;50.004;8.006;2023-01-25T07:46:54;102397.00;;;2.16;100.00
24230;BME280;12362;50.004;8.006;2023-01-25T07:49:20;102393.66;;;2.20;100.00
24230;BME280;12362;50.004;8.006;2023-01-25T07:51:45;102394.44;;;2.16;100.00
24230;BME280;12362;50.004;8.006;2023-01-25T07:54:11;102390.91;;;2.09;100.00
24230;BME280;12362;50.004;8.006;2023-01-25T07:56:37;102383.22;;;2.09;100.00
24230;BME280;12362;50.004;8.006;2023-01-25T07:59:28;102391.78;;;2.10;100.00
24230;BME280;12362;50.004;8.006;2023-01-25T08:01:55;102387.50;;;2.10;100.00
24230;BME280;12362;50.004;8.006;2023-01-25T08:04:20;102390.97;;;2.12;100.00
24230;BME280;12362;50.004;8.006;2023-01-25T08:06:46;102392.69;;;2.15;100.00
24230;BME280;12362;50.004;8.006;2023-01-25T08:09:17;102391.03;;;2.15;100.00
24230;BME280;12362;50.004;8.006;2023-01-25T08:11:46;102393.66;;;2.21;100.00
24230;BME280;12362;50.004;8.006;2023-01-25T08:14:13;102398.94;;;2.29;100.00
24230;BME280;12362;50.004;8.006;2023-01-25T08:16:39;102396.28;;;2.23;100.00
24230;BME280;12362;50.004;8.006;2023-01-25T08:19:05;102400.50;;;2.21;100.00
24230;BME280;12362;50.004;8.006;2023-01-25T08:21:32;102399.69;;;2.22;100.00
24230;BME280;12362;50.004;8.006;2023-01-25T08:24:00;102403.91;;;2.21;100.00
24230;BME280;12362;50.004;8.006;2023-01-25T08:26:26;102394.47;;;2.17;100.00
24230;BME280;12362;50.004;8.006;2023-01-25T08:28:52;102396.22;;;2.18;100.00
24230;BME280;12362;50.004;8.006;2023-01-25T08:31:23;102395.25;;;2.13;100.00
24230;BME280;12362;50.004;8.006;2023-01-25T08:33:50;102390.16;;;2.15;100.00
24230;BME280;12362;50.004;8.006;2023-01-25T08:36:17;102387.59;;;2.15;100.00
24230;BME280;12362;50.004;8.006;2023-01-25T08:38:44;102380.91;;;2.23;100.00
24230;BME280;12362;50.004;8.006;2023-01-25T08:41:13;102376.78;;;2.32;100.00
24230;BME280;12362;50.004;8.006;2023-01-25T08:43:40;102380.16;;;2.31;100.00
24230;BME280;12362;50.004;8.006;2023-01-25T08:46:06;102378.50;;;2.33;100.00
24230;BME280;12362;50.004;8.006;2023-01-25T08:48:32;102371.63;;;2.29;100.00
24230;BME280;12362;50.004;8.006;2023-01-25T08:50:58;102377.53;;;2.25;100.00
24230;BME280;12362;50.004;8.006;2023-01-25T08:53:23;102372.38;;;2.24;100.00
24230;BME280;12362;50.004;8.006;2023-01-25T08:55:51;102369.78;;;2.21;100.00
24230;BME280;12362;50.004;8.006;2023-01-25T08:58:25;102374.13;;;2.26;100.00
24230;BME280;12362;50.004;8.006;2023-01-25T09:01:14;102372.47;;;2.28;100.00
24230;BME280;12362;50.004;8.006;2023-01-25T09:03:46;102382.56;;;2.21;100.00
24230;BME280;12362;50.004;8.006;2023-01-25T09:06:17;102370.66;;;2.23;100.00
24230;BME280;12362;50.004;8.006;2023-01-25T09:08:48;102368.81;;;2.16;100.00
24230;BME280;12362;50.004;8.006;2023-01-25T09:11:19;102372.19;;;2.12;100.00
24230;BME280;12362;50.004;8.006;2023-01-25T09:13:48;102369.72;;;2.19;100.00
24230;BME280;12362;50.004;8.006;2023-01-25T09:16:30;102368.13;;;2.24;100.00
24230;BME280;12362;50.004;8.006;2023-01-25T09:19:08;102371.56;;;2.26;100.00
24230;BME280;12362;50.004;8.006;2023-01-25T09:21:46;102370.03;;;2.36;100.00
24230;BME280;12362;50.004;8.006;2023-01-25T09:24:36;102371.00;;;2.44;100.00
24230;BME280;12362;50.004;8.006;2023-01-25T09:27:01;102364.06;;;2.38;100.00
24230;BME280;12362;50.004;8.006;2023-01-25T09:29:33;102358.22;;;2.47;100.00
24230;BME280;12362;50.004;8.006;2023-01-25T09:32:14;102357.16;;;2.33;100.00
24230;BME280;12362;50.004;8.006;2023-01-25T09:34:55;102352.91;;;2.35;100.00
24230;BME280;12362;50.004;8.006;2023-01-25T09:37:29;102356.44;;;2.43;100.00
24230;BME280;12362;50.004;8.006;2023-01-25T09:40:02;102343.75;;;2.49;100.00
24230;BME280;12362;50.004;8.006;2023-01-25T09:48:55;102342.66;;;2.35;100.00
24230;BME280;12362;50.004;8.006;2023-01-25T09:51:43;102335.22;;;2.51;100.00
24230;BME280;12362;50.004;8.006;2023-01-25T09:54:15;102336.19;;;2.59;100.00
24230;BME280;12362;50.004;8.006;2023-01-25T09:56:49;102340.53;;;2.65;100.00
24230;BME280;12362;50.004;8.006;2023-01-25T09:59:24;102335.38;;;2.62;100.00
24230;BME280;12362;50.004;8.006;2023-01-25T10:02:28;102342.16;;;2.57;100.00
24230;BME280;12362;50.004;8.006;2023-01-25T10:05:21;102346.38;;;2.55;100.00
24230;BME280;12362;50.004;8.006;2023-01-25T10:08:01;102336.19;;;2.58;100.00
24230;BME280;12362;50.004;8.006;2023-01-25T10:10:41;102333.41;;;2.44;100.00
24230;BME280;12362;50.004;8.006;2023-01-25T10:13:23;102328.97;;;2.34;100.00
24230;BME280;12362;50.004;8.006;2023-01-25T10:16:10;102329.88;;;2.36;100.00
24230;BME280;12362;50.004;8.006;2023-01-25T10:21:56;102328.44;;;2.56;100.00
24230;BME280;12362;50.004;8.006;2023-01-25T10:31:21;102321.81;;;2.68;100.00
24230;BME280;12362;50.004;8.006;2023-01-25T10:34:12;102312.22;;;2.57;100.00
24230;BME280;12362;50.004;8.006;2023-01-25T10:37:30;102307.03;;;2.53;100.00
24230;BME280;12362;50.004;8.006;2023-01-25T10:39:38;102305.38;;;2.55;100.00
24230;BME280;12362;50.004;8.006;2023-01-25T10:42:13;102296.84;;;2.54;100.00
24230;BME280;12362;50.004;8.006;2023-01-25T10:44:48;102296.00;;;2.58;100.00
24230;BME280;12362;50.004;8.006;2023-01-25T10:47:41;102279.88;;;2.65;100.00
24230;BME280;12362;50.004;8.006;2023-01-25T10:50:44;102277.34;;;2.68;100.00
24230;BME280;12362;50.004;8.006;2023-01-25T10:53:41;102275.56;;;2.61;100.00
24230;BME280;12362;50.004;8.006;2023-01-25T10:56:23;102268.63;;;2.54;100.00
24230;BME280;12362;50.004;8.006;2023-01-25T11:07:42;102239.72;;;2.67;100.00
24230;BME280;12362;50.004;8.006;2023-01-25T11:10:36;102238.09;;;2.70;100.00
24230;BME280;12362;50.004;8.006;2023-01-25T11:13:43;102238.03;;;2.67;100.00
24230;BME280;12362;50.004;8.006;2023-01-25T11:16:17;102227.03;;;2.77;100.00
24230;BME280;12362;50.004;8.006;2023-01-25T11:18:50;102233.94;;;2.83;100.00
24230;BME280;12362;50.004;8.006;2023-01-25T11:21:20;102228.63;;;2.68;100.00
24230;BME280;12362;50.004;8.006;2023-01-25T11:26:35;102216.63;;;2.64;100.00
24230;BME280;12362;50.004;8.006;2023-01-25T11:29:17;102217.47;;;2.65;100.00
24230;BME280;12362;50.004;8.006;2023-01-25T11:31:45;102217.25;;;2.47;100.00
24230;BME280;12362;50.004;8.006;2023-01-25T11:34:14;102209.78;;;2.63;100.00
24230;BME280;12362;50.004;8.006;2023-01-25T11:37:14;102210.81;;;2.77;100.00
24230;BME280;12362;50.004;8.006;2023-01-25T11:42:41;102193.78;;;2.83;100.00
24230;BME280;12362;50.004;8.006;2023-01-25T11:51:43;102183.34;;;2.70;100.00
24230;BME280;12362;50.004;8.006;2023-01-25T11:54:41;102181.63;;;2.66;100.00
24230;BME280;12362;50.004;8.006;2023-01-25T12:18:10;102133.00;;;2.76;100.00
24230;BME280;12362;50.004;8.006;2023-01-25T12:26:33;102115.81;;;2.65;100.00
24230;BME280;12362;50.004;8.006;2023-01-25T12:29:21;102108.16;;;2.71;100.00
24230;BME280;12362;50.004;8.006;2023-01-25T12:31:57;102101.41;;;2.77;100.00
24230;BME280;12362;50.004;8.006;2023-01-25T12:34:47;102097.91;;;2.71;100.00
24230;BME280;12362;50.004;8.006;2023-01-25T12:37:18;102092.91;;;2.83;100.00
24230;BME280;12362;50.004;8.006;2023-01-25T12:40:11;102089.53;;;2.88;100.00
24230;BME280;12362;50.004;8.006;2023-01-25T12:42:56;102079.13;;;2.72;100.00
24230;BME280;12362;50.004;8.006;2023-01-25T12:45:44;102077.31;;;2.64;100.00
24230;BME280;12362;50.004;8.006;2023-01-25T12:48:38;102067.25;;;2.81;100.00
24230;BME280;12362;50.004;8.006;2023-01-25T12:51:15;102074.94;;;2.83;100.00
24230;BME280;12362;50.004;8.006;2023-01-25T12:54:15;102063.75;;;2.73;100.00
24230;BME280;12362;50.004;8.006;2023-01-25T12:57:00;102059.44;;;2.71;100.00
24230;BME280;12362;50.004;8.006;2023-01-25T13:00:15;102051.97;;;2.96;100.00
24230;BME280;12362;50.004;8.006;2023-01-25T13:12:08;102026.13;;;2.72;100.00
24230;BME280;12362;50.004;8.006;2023-01-25T13:14:40;102012.47;;;2.73;100.00
24230;BME280;12362;50.004;8.006;2023-01-25T13:17:31;102018.34;;;2.64;100.00
24230;BME280;12362;50.004;8.006;2023-01-25T13:28:46;102003.69;;;2.48;100.00
24230;BME280;12362;50.004;8.006;2023-01-25T13:34:08;101985.94;;;2.68;100.00
24230;BME280;12362;50.004;8.006;2023-01-25T13:36:44;101995.38;;;2.74;100.00
24230;BME280;12362;50.004;8.006;2023-01-25T13:45:49;101984.16;;;2.60;100.00
24230;BME280;12362;50.004;8.006;2023-01-25T13:48:27;101980.84;;;2.71;100.00
24230;BME280;12362;50.004;8.006;2023-01-25T13:51:03;101969.75;;;2.75;100.00
24230;BME280;12362;50.004;8.006;2023-01-25T13:53:32;101962.91;;;2.71;100.00
24230;BME280;12362;50.004;8.006;2023-01-25T13:56:04;101966.38;;;2.78;100.00
24230;BME280;12362;50.004;8.006;2023-01-25T13:58:46;101965.47;;;2.73;100.00
24230;BME280;12362;50.004;8.006;2023-01-25T14:01:19;101958.56;;;2.65;100.00
24230;BME280;12362;50.004;8.006;2023-01-25T14:03:58;101957.63;;;2.58;100.00
24230;BME280;12362;50.004;8.006;2023-01-25T14:06:33;101953.34;;;2.56;100.00
24230;BME280;12362;50.004;8.006;2023-01-25T14:09:10;101956.88;;;2.68;100.00
24230;BME280;12362;50.004;8.006;2023-01-25T14:11:44;101943.09;;;2.56;100.00
24230;BME280;12362;50.004;8.006;2023-01-25T14:14:17;101940.53;;;2.56;100.00
24230;BME280;12362;50.004;8.006;2023-01-25T14:20:21;101937.22;;;2.70;100.00
24230;BME280;12362;50.004;8.006;2023-01-25T14:23:01;101944.03;;;2.65;100.00
24230;BME280;12362;50.004;8.006;2023-01-25T14:25:26;101938.03;;;2.63;100.00
24230;BME280;12362;50.004;8.006;2023-01-25T14:27:58;101932.91;;;2.65;100.00
24230;BME280;12362;50.004;8.006;2023-01-25T14:30:29;101938.09;;;2.72;100.00
24230;BME280;12362;50.004;8.006;2023-01-25T14:32:58;101927.84;;;2.70;100.00
24230;BME280;12362;50.004;8.006;2023-01-25T14:35:54;101926.81;;;2.51;100.00
24230;BME280;12362;50.004;8.006;2023-01-25T14:38:25;101914.81;;;2.45;100.00
24230;BME280;12362;50.004;8.006;2023-01-25T14:40:54;101907.13;;;2.45;100.00
24230;BME280;12362;50.004;8.006;2023-01-25T14:43:21;101903.69;;;2.40;100.00
24230;BME280;12362;50.004;8.006;2023-01-25T14:45:47;101901.91;;;2.32;100.00
24230;BME280;12362;50.004;8.006;2023-01-25T14:48:32;101894.22;;;2.30;100.00
24230;BME280;12362;50.004;8.006;2023-01-25T14:53:48;101891.50;;;2.17;100.00
24230;BME280;12362;50.004;8.006;2023-01-25T14:56:35;101894.19;;;2.27;100.00
24230;BME280;12362;50.004;8.006;2023-01-25T14:59:05;101891.63;;;2.27;100.00
24230;BME280;12362;50.004;8.006;2023-01-25T15:01:38;101889.09;;;2.32;100.00
24230;BME280;12362;50.004;8.006;2023-01-25T15:04:10;101890.63;;;2.12;100.00
24230;BME280;12362;50.004;8.006;2023-01-25T15:06:49;101888.88;;;2.08;100.00